Impacts METAR Board
IDs:

KMEM - Memphis Intl, TN, US

Updated at: 0300 UTC 22 Jun 2018
Potential Impact None Slight Moderate High
Time 21/15Z 21/16Z 21/17Z 21/18Z 21/19Z 21/20Z 21/21Z 21/22Z 21/23Z 22/00Z 22/01Z 22/02Z 22/03Z
Temp78 81 83 86 87 88 88 88 83 81 79 77 75
Dewpt74 73 73 73 73 71 72 71 69 70 70 71 68
Altim29.85 29.85 29.84 29.83 29.81 29.79 29.75 29.73 29.73 29.74 29.75 29.78 29.79
VIS10 10 10 10 10 10 10 10 10 10 10 10 10
CIG14 26 35 33 35 40 -- -- 47 -- 70 -- --
CoverBKNBKNBKNBKNBKNBKNSCTSCTBKNSCTBKNSCTSCT
FltCatMVFRMVFRVFRVFRVFRVFRVFRVFRVFRVFRVFRVFRVFR
WX----------------------VCTS--
WDir250260250260230240220230050505030
WSpd11 6 8 9 9 10 12 14 0 7 9 13 5
WGst17 17 -- -- -- -- -- 25 -- -- -- -- --
Raw hourly METARs
KMEM 211454Z 25011G17KT 10SM BKN014 BKN024 26/23 A2985 RMK AO2 RAE00 SLP103 P0000 60000 T02560233 58004
KMEM 211554Z 26006G17KT 10SM SCT016 BKN026 BKN032 27/23 A2985 RMK AO2 SLP105 T02720228
KMEM 211654Z 25008KT 10SM SCT027 BKN035 28/23 A2984 RMK AO2 SLP101 T02830228
KMEM 211754Z 26009KT 10SM BKN033 30/23 A2983 RMK AO2 SLP097 60000 T03000228 10300 20228 58006
KMEM 211854Z 23009KT 200V270 10SM BKN035 31/23 A2981 RMK AO2 SLP089 BKN V SCT T03060228
KMEM 211954Z 24010KT 10SM BKN040 BKN250 31/22 A2979 RMK AO2 SLP082 T03110217
KMEM 212054Z 22012KT 10SM SCT040 SCT250 31/22 A2975 RMK AO2 LTG DSNT N AND NW SLP071 CB DSNT NW-N MOV E T03110222 58025
KMEM 212154Z 23014G25KT 10SM FEW042 SCT250 31/22 A2973 RMK AO2 LTG DSNT NW-NE SLP064 CB DSNT NW-NE T03110217
KMEM 212254Z 00000KT 10SM BKN047 28/21 A2973 RMK AO2 LTG DSNT NW-E SLP063 CB DSNT NW-E T02830206
KMEM 212354Z 05007KT 10SM FEW045 SCT250 27/21 A2974 RMK AO2 LTG DSNT W AND NW SLP067 CB DSNT SW AND NW T02720211 10317 20256 55004
KMEM 220054Z 05009KT 10SM FEW035 SCT050 BKN070 BKN250 26/21 A2975 RMK AO2 LTG DSNT ALQDS TSB13E33 SLP070 CB DSNT ALQDS T02610211
KMEM 220204Z 05013KT 10SM VCTS FEW035 SCT075 25/22 A2978 RMK AO2 LTG DSNT ALQDS T02500217
KMEM 220254Z 03005KT 10SM SCT031 24/20 A2979 RMK AO2 LTG DSNT E-SW SLP083 T02390200 53016



Page loaded:  03:18 UTC  |   08:18 PM Pacific  |   09:18 PM Mountain  |   10:18 PM Central  |   11:18 PM Eastern

 

ADVISORIES

FORECASTS

FORECASTS

OBSERVATIONS

USER TOOLS

ABOUT US